METAR Data
IDs: Format: Raw Decoded Include TAF

Data at: 2351 UTC 25 Oct 2021

KILE 252256Z AUTO 15009G14KT 10SM CLR 30/22 A2991 RMK AO2 SLP115 T03000222
KILE 252156Z AUTO 16009KT 10SM CLR 31/22 A2991 RMK AO2 SLP115 T03110222
KILE 252056Z AUTO 12008KT 10SM FEW037 32/23 A2991 RMK AO2 SLP116 T03170233 56020
KILE 251956Z AUTO 12007KT 10SM FEW035 31/23 A2992 RMK AO2 SLP119 T03110233
KILE 251856Z AUTO 13007KT 080V150 10SM CLR 31/23 A2995 RMK AO2 SLP126 T03060228
KILE 251756Z AUTO VRB05KT 10SM CLR 29/22 A2997 RMK AO2 SLP135 T02940222 10294 20183 58009
KILE 251656Z AUTO 00000KT 10SM CLR 28/22 A2998 RMK AO2 SLP141 T02780222
KILE 251556Z AUTO 00000KT 10SM CLR 26/21 A2999 RMK AO2 SLP144 T02560211
KILE 251456Z AUTO 15004KT 10SM CLR 23/21 A3000 RMK AO2 SLP148 T02330211 53015
KILE 251356Z AUTO 00000KT 10SM CLR 21/20 A2999 RMK AO2 SLP143 T02110200
KILE 251256Z AUTO 00000KT 10SM CLR 19/18 A2997 RMK AO2 SLP137 T01890183
KILE 251156Z AUTO 00000KT 10SM CLR 19/19 A2995 RMK AO2 SLP132 T01890189 10228 20183 53013
KILE 251056Z AUTO 00000KT 10SM CLR 19/18 A2993 RMK AO2 SLP124 T01940183
KILE 250956Z AUTO 22004KT 10SM CLR 21/20 A2992 RMK AO2 SLP117 T02110200
KILE 250856Z AUTO 00000KT 10SM CLR 19/19 A2991 RMK AO2 SLP117 T01940189 51003
KILE 250756Z AUTO 00000KT 10SM CLR 21/19 A2991 RMK AO2 SLP116 T02110194
KILE 250656Z AUTO 22003KT 10SM CLR 21/19 A2991 RMK AO2 SLP116 T02110194
KILE 250556Z AUTO 20007KT 10SM CLR 22/20 A2990 RMK AO2 SLP114 T02220200 10267 20211 403000200 51011
KILE 250456Z AUTO 18004KT 10SM CLR 22/19 A2990 RMK AO2 SLP115 T02170194
KILE 250356Z AUTO 19006KT 10SM CLR 22/19 A2989 RMK AO2 SLP110 T02170194
KILE 250256Z AUTO 17004KT 10SM CLR 23/19 A2987 RMK AO2 SLP105 T02280194 53016
KILE 250156Z AUTO 16005KT 10SM CLR 24/20 A2985 RMK AO2 SLP097 T02390200
KILE 250056Z AUTO 16007KT 10SM CLR 25/20 A2984 RMK AO2 SLP092 T02500200
KILE 242356Z AUTO 16008KT 10SM CLR 27/20 A2982 RMK AO2 SLP088 T02670200 10300 20267 52004
KILE 242256Z AUTO 18007KT 10SM CLR 28/21 A2982 RMK AO2 SLP084 T02830206
KILE 242156Z AUTO 16011KT 10SM SCT045 29/21 A2982 RMK AO2 SLP084 T02890206
KILE 242056Z AUTO 18007KT 10SM OVC040 29/21 A2981 RMK AO2 SLP082 T02940211 56015
KILE 241956Z AUTO 18009G17KT 10SM BKN034 28/21 A2981 RMK AO2 SLP083 T02830206
KILE 241915Z AUTO 18013G16KT 10SM FEW029 BKN036 28/21 A2983 RMK AO2
KILE 241856Z AUTO 16012KT 10SM BKN029 BKN037 28/21 A2983 RMK AO2 SLP088 T02780211
KILE 241838Z AUTO 14012KT 10SM BKN029 BKN039 27/21 A2984 RMK AO2
KILE 241810Z AUTO 16010G19KT 10SM SCT025 BKN033 28/21 A2985 RMK AO2
KILE 241756Z AUTO 18012KT 10SM FEW020 BKN027 27/21 A2985 RMK AO2 SLP097 T02670206 10267 20200 58016
KILE 241737Z AUTO 18009KT 10SM BKN020 BKN025 26/21 A2987 RMK AO2
KILE 241656Z AUTO 16010KT 10SM FEW014 BKN041 25/21 A2988 RMK AO2 SLP108 T02500206
KILE 241622Z AUTO 17006KT 10SM BKN010 OVC017 23/21 A2991 RMK AO2 CIG 007V015
KILE 241556Z AUTO 16008KT 10SM OVC008 23/21 A2990 RMK AO2 CIG 006V011 SLP116 T02280211
KILE 241554Z AUTO 16008KT 10SM OVC008 23/21 A2990 RMK AO2 CIG 006V011
KILE 241456Z AUTO 15008KT 10SM OVC005 21/21 A2991 RMK AO2 SLP118 T02110206 53018
KILE 241356Z AUTO 15007KT 10SM OVC005 21/21 A2988 RMK AO2 SLP107 T02110206
KILE 241256Z AUTO 14008KT 10SM BKN005 OVC009 21/19 A2985 RMK AO2 SLP097 T02060194
KILE 241253Z AUTO 14008KT 10SM OVC007 21/19 A2985 RMK AO2 CIG 005V010
KILE 241156Z AUTO 16008KT 10SM OVC004 20/20 A2985 RMK AO2 SLP096 T02000200 10206 20200 53004